sensor_id;sensor_type;location;lat;lon;timestamp;P1;durP1;ratioP1;P2;durP2;ratioP2
66669;SDS011;53568;52.164;4.472;2023-11-21T00:01:57;9.08;;;9.03;;
66669;SDS011;53568;52.164;4.472;2023-11-21T00:04:23;8.37;;;8.33;;
66669;SDS011;53568;52.164;4.472;2023-11-21T00:06:49;8.89;;;8.87;;
66669;SDS011;53568;52.164;4.472;2023-11-21T00:09:15;9.16;;;9.15;;
66669;SDS011;53568;52.164;4.472;2023-11-21T00:11:41;9.01;;;8.99;;
66669;SDS011;53568;52.164;4.472;2023-11-21T00:14:07;7.96;;;7.88;;
66669;SDS011;53568;52.164;4.472;2023-11-21T00:16:33;7.06;;;6.98;;
66669;SDS011;53568;52.164;4.472;2023-11-21T00:18:59;6.31;;;6.28;;
66669;SDS011;53568;52.164;4.472;2023-11-21T00:21:25;6.14;;;6.08;;
66669;SDS011;53568;52.164;4.472;2023-11-21T00:23:51;6.80;;;6.64;;
66669;SDS011;53568;52.164;4.472;2023-11-21T00:26:16;7.96;;;7.81;;
66669;SDS011;53568;52.164;4.472;2023-11-21T00:28:42;8.78;;;8.72;;
66669;SDS011;53568;52.164;4.472;2023-11-21T00:31:07;8.99;;;8.96;;
66669;SDS011;53568;52.164;4.472;2023-11-21T00:33:33;9.36;;;9.31;;
66669;SDS011;53568;52.164;4.472;2023-11-21T00:35:58;9.78;;;9.76;;
66669;SDS011;53568;52.164;4.472;2023-11-21T00:38:24;9.28;;;9.20;;
66669;SDS011;53568;52.164;4.472;2023-11-21T00:40:49;9.12;;;9.10;;
66669;SDS011;53568;52.164;4.472;2023-11-21T00:43:15;9.15;;;9.08;;
66669;SDS011;53568;52.164;4.472;2023-11-21T00:45:40;8.36;;;8.29;;
66669;SDS011;53568;52.164;4.472;2023-11-21T00:48:06;7.90;;;7.88;;
66669;SDS011;53568;52.164;4.472;2023-11-21T00:50:33;7.45;;;7.43;;
66669;SDS011;53568;52.164;4.472;2023-11-21T00:52:58;7.38;;;7.36;;
66669;SDS011;53568;52.164;4.472;2023-11-21T00:55:24;7.32;;;7.28;;
66669;SDS011;53568;52.164;4.472;2023-11-21T00:57:50;7.04;;;6.96;;
66669;SDS011;53568;52.164;4.472;2023-11-21T01:00:15;6.61;;;6.55;;
66669;SDS011;53568;52.164;4.472;2023-11-21T01:02:44;6.32;;;6.29;;
66669;SDS011;53568;52.164;4.472;2023-11-21T01:05:10;6.82;;;6.78;;
66669;SDS011;53568;52.164;4.472;2023-11-21T01:07:35;7.04;;;7.01;;
66669;SDS011;53568;52.164;4.472;2023-11-21T01:10:02;7.07;;;7.05;;
66669;SDS011;53568;52.164;4.472;2023-11-21T01:12:28;7.04;;;7.04;;
66669;SDS011;53568;52.164;4.472;2023-11-21T01:14:54;7.36;;;7.36;;
66669;SDS011;53568;52.164;4.472;2023-11-21T01:17:19;7.38;;;7.38;;
66669;SDS011;53568;52.164;4.472;2023-11-21T01:19:47;7.35;;;7.34;;
66669;SDS011;53568;52.164;4.472;2023-11-21T01:22:13;6.94;;;6.94;;
66669;SDS011;53568;52.164;4.472;2023-11-21T01:24:38;6.84;;;6.84;;
66669;SDS011;53568;52.164;4.472;2023-11-21T01:27:04;6.43;;;6.43;;
66669;SDS011;53568;52.164;4.472;2023-11-21T01:29:29;6.63;;;6.63;;
66669;SDS011;53568;52.164;4.472;2023-11-21T01:31:55;6.87;;;6.84;;
66669;SDS011;53568;52.164;4.472;2023-11-21T01:34:22;6.77;;;6.73;;
66669;SDS011;53568;52.164;4.472;2023-11-21T01:36:48;6.33;;;6.30;;
66669;SDS011;53568;52.164;4.472;2023-11-21T01:39:14;5.69;;;5.68;;
66669;SDS011;53568;52.164;4.472;2023-11-21T01:41:41;4.51;;;4.50;;
66669;SDS011;53568;52.164;4.472;2023-11-21T01:44:09;4.64;;;4.63;;
66669;SDS011;53568;52.164;4.472;2023-11-21T01:46:35;4.48;;;4.45;;
66669;SDS011;53568;52.164;4.472;2023-11-21T01:49:02;5.27;;;5.26;;
66669;SDS011;53568;52.164;4.472;2023-11-21T01:51:28;5.43;;;5.43;;
66669;SDS011;53568;52.164;4.472;2023-11-21T01:53:54;4.58;;;4.58;;
66669;SDS011;53568;52.164;4.472;2023-11-21T01:56:20;4.53;;;4.51;;
66669;SDS011;53568;52.164;4.472;2023-11-21T01:58:46;4.26;;;4.23;;
66669;SDS011;53568;52.164;4.472;2023-11-21T02:01:12;4.02;;;4.02;;
66669;SDS011;53568;52.164;4.472;2023-11-21T02:03:37;4.39;;;4.37;;
66669;SDS011;53568;52.164;4.472;2023-11-21T02:06:03;4.19;;;4.18;;
66669;SDS011;53568;52.164;4.472;2023-11-21T02:08:28;4.59;;;4.59;;
66669;SDS011;53568;52.164;4.472;2023-11-21T02:10:54;4.65;;;4.64;;
66669;SDS011;53568;52.164;4.472;2023-11-21T02:13:20;5.07;;;5.07;;
66669;SDS011;53568;52.164;4.472;2023-11-21T02:15:45;4.62;;;4.62;;
66669;SDS011;53568;52.164;4.472;2023-11-21T02:18:12;5.06;;;5.05;;
66669;SDS011;53568;52.164;4.472;2023-11-21T02:20:38;4.83;;;4.78;;
66669;SDS011;53568;52.164;4.472;2023-11-21T02:23:06;4.95;;;4.92;;
66669;SDS011;53568;52.164;4.472;2023-11-21T02:25:32;4.41;;;4.39;;
66669;SDS011;53568;52.164;4.472;2023-11-21T02:28:01;4.51;;;4.48;;
66669;SDS011;53568;52.164;4.472;2023-11-21T02:30:29;4.40;;;4.37;;
66669;SDS011;53568;52.164;4.472;2023-11-21T02:32:57;4.26;;;4.25;;
66669;SDS011;53568;52.164;4.472;2023-11-21T02:35:23;3.83;;;3.80;;
66669;SDS011;53568;52.164;4.472;2023-11-21T02:37:51;3.72;;;3.69;;
66669;SDS011;53568;52.164;4.472;2023-11-21T02:40:17;3.18;;;3.16;;
66669;SDS011;53568;52.164;4.472;2023-11-21T02:42:46;2.52;;;2.50;;
66669;SDS011;53568;52.164;4.472;2023-11-21T02:45:13;2.70;;;2.68;;
66669;SDS011;53568;52.164;4.472;2023-11-21T02:47:42;2.34;;;2.34;;
66669;SDS011;53568;52.164;4.472;2023-11-21T02:50:10;2.30;;;2.29;;
66669;SDS011;53568;52.164;4.472;2023-11-21T02:52:36;2.22;;;2.22;;
66669;SDS011;53568;52.164;4.472;2023-11-21T02:55:02;2.60;;;2.60;;
66669;SDS011;53568;52.164;4.472;2023-11-21T02:57:28;3.29;;;3.28;;
66669;SDS011;53568;52.164;4.472;2023-11-21T02:59:55;3.49;;;3.48;;
66669;SDS011;53568;52.164;4.472;2023-11-21T03:02:20;3.74;;;3.74;;
66669;SDS011;53568;52.164;4.472;2023-11-21T03:04:47;3.88;;;3.88;;
66669;SDS011;53568;52.164;4.472;2023-11-21T03:07:14;4.13;;;4.12;;
66669;SDS011;53568;52.164;4.472;2023-11-21T03:09:47;3.27;;;3.27;;
66669;SDS011;53568;52.164;4.472;2023-11-21T03:12:12;3.10;;;3.10;;
66669;SDS011;53568;52.164;4.472;2023-11-21T03:14:39;3.55;;;3.55;;
66669;SDS011;53568;52.164;4.472;2023-11-21T03:17:05;3.79;;;3.79;;
66669;SDS011;53568;52.164;4.472;2023-11-21T03:19:31;3.85;;;3.84;;
66669;SDS011;53568;52.164;4.472;2023-11-21T03:21:57;4.14;;;4.13;;
66669;SDS011;53568;52.164;4.472;2023-11-21T03:24:22;4.29;;;4.29;;
66669;SDS011;53568;52.164;4.472;2023-11-21T03:26:48;4.12;;;4.12;;
66669;SDS011;53568;52.164;4.472;2023-11-21T03:29:14;4.53;;;4.50;;
66669;SDS011;53568;52.164;4.472;2023-11-21T03:31:40;4.19;;;4.18;;
66669;SDS011;53568;52.164;4.472;2023-11-21T03:34:06;4.23;;;4.22;;
66669;SDS011;53568;52.164;4.472;2023-11-21T03:36:31;4.17;;;4.15;;
66669;SDS011;53568;52.164;4.472;2023-11-21T03:38:57;4.60;;;4.56;;
66669;SDS011;53568;52.164;4.472;2023-11-21T03:41:22;4.97;;;4.93;;
66669;SDS011;53568;52.164;4.472;2023-11-21T03:43:48;4.88;;;4.83;;
66669;SDS011;53568;52.164;4.472;2023-11-21T03:46:14;4.78;;;4.76;;
66669;SDS011;53568;52.164;4.472;2023-11-21T03:48:39;4.80;;;4.79;;
66669;SDS011;53568;52.164;4.472;2023-11-21T03:51:05;4.81;;;4.79;;
66669;SDS011;53568;52.164;4.472;2023-11-21T03:53:31;5.03;;;5.00;;
66669;SDS011;53568;52.164;4.472;2023-11-21T03:55:57;5.56;;;5.50;;
66669;SDS011;53568;52.164;4.472;2023-11-21T03:58:23;4.63;;;4.60;;
66669;SDS011;53568;52.164;4.472;2023-11-21T04:00:48;4.72;;;4.69;;
66669;SDS011;53568;52.164;4.472;2023-11-21T04:03:14;4.17;;;4.14;;
66669;SDS011;53568;52.164;4.472;2023-11-21T04:05:40;3.97;;;3.93;;
66669;SDS011;53568;52.164;4.472;2023-11-21T04:08:06;3.77;;;3.74;;
66669;SDS011;53568;52.164;4.472;2023-11-21T04:10:32;3.93;;;3.89;;
66669;SDS011;53568;52.164;4.472;2023-11-21T04:12:58;4.24;;;4.22;;
66669;SDS011;53568;52.164;4.472;2023-11-21T04:15:25;3.33;;;3.30;;
66669;SDS011;53568;52.164;4.472;2023-11-21T04:17:51;3.36;;;3.32;;
66669;SDS011;53568;52.164;4.472;2023-11-21T04:20:16;3.09;;;3.07;;
66669;SDS011;53568;52.164;4.472;2023-11-21T04:22:43;3.09;;;3.08;;
66669;SDS011;53568;52.164;4.472;2023-11-21T04:25:10;3.11;;;3.11;;
66669;SDS011;53568;52.164;4.472;2023-11-21T04:27:36;3.07;;;3.07;;
66669;SDS011;53568;52.164;4.472;2023-11-21T04:30:04;3.33;;;3.33;;
66669;SDS011;53568;52.164;4.472;2023-11-21T04:32:30;3.22;;;3.21;;
66669;SDS011;53568;52.164;4.472;2023-11-21T04:34:56;3.00;;;2.99;;
66669;SDS011;53568;52.164;4.472;2023-11-21T04:37:22;3.14;;;3.13;;
66669;SDS011;53568;52.164;4.472;2023-11-21T04:39:47;2.75;;;2.73;;
66669;SDS011;53568;52.164;4.472;2023-11-21T04:42:13;2.65;;;2.64;;
66669;SDS011;53568;52.164;4.472;2023-11-21T04:44:39;2.58;;;2.58;;
66669;SDS011;53568;52.164;4.472;2023-11-21T04:47:06;2.65;;;2.64;;
66669;SDS011;53568;52.164;4.472;2023-11-21T04:49:32;2.57;;;2.56;;
66669;SDS011;53568;52.164;4.472;2023-11-21T04:51:58;2.51;;;2.49;;
66669;SDS011;53568;52.164;4.472;2023-11-21T04:54:24;2.69;;;2.67;;
66669;SDS011;53568;52.164;4.472;2023-11-21T04:56:49;2.44;;;2.43;;
66669;SDS011;53568;52.164;4.472;2023-11-21T04:59:15;2.63;;;2.60;;
66669;SDS011;53568;52.164;4.472;2023-11-21T05:01:41;2.55;;;2.51;;
66669;SDS011;53568;52.164;4.472;2023-11-21T05:04:06;2.41;;;2.37;;
66669;SDS011;53568;52.164;4.472;2023-11-21T05:06:34;2.27;;;2.24;;
66669;SDS011;53568;52.164;4.472;2023-11-21T05:08:59;2.28;;;2.26;;
66669;SDS011;53568;52.164;4.472;2023-11-21T05:11:25;2.23;;;2.20;;
66669;SDS011;53568;52.164;4.472;2023-11-21T05:13:54;2.21;;;2.18;;
66669;SDS011;53568;52.164;4.472;2023-11-21T05:16:25;2.15;;;2.13;;
66669;SDS011;53568;52.164;4.472;2023-11-21T05:18:52;2.27;;;2.26;;
66669;SDS011;53568;52.164;4.472;2023-11-21T05:21:18;2.17;;;2.16;;
66669;SDS011;53568;52.164;4.472;2023-11-21T05:23:46;2.12;;;2.10;;
66669;SDS011;53568;52.164;4.472;2023-11-21T05:26:11;2.09;;;2.08;;
66669;SDS011;53568;52.164;4.472;2023-11-21T05:28:37;2.07;;;2.06;;
66669;SDS011;53568;52.164;4.472;2023-11-21T05:31:02;2.08;;;2.07;;
66669;SDS011;53568;52.164;4.472;2023-11-21T05:33:28;2.18;;;2.18;;
66669;SDS011;53568;52.164;4.472;2023-11-21T05:35:53;1.96;;;1.95;;
66669;SDS011;53568;52.164;4.472;2023-11-21T05:38:18;2.07;;;2.06;;
66669;SDS011;53568;52.164;4.472;2023-11-21T05:40:46;1.87;;;1.87;;
66669;SDS011;53568;52.164;4.472;2023-11-21T05:43:12;1.84;;;1.84;;
66669;SDS011;53568;52.164;4.472;2023-11-21T05:45:38;1.65;;;1.64;;
66669;SDS011;53568;52.164;4.472;2023-11-21T05:48:04;1.93;;;1.91;;
66669;SDS011;53568;52.164;4.472;2023-11-21T05:50:29;1.60;;;1.57;;
66669;SDS011;53568;52.164;4.472;2023-11-21T05:52:56;1.65;;;1.60;;
66669;SDS011;53568;52.164;4.472;2023-11-21T05:55:25;1.76;;;1.72;;
66669;SDS011;53568;52.164;4.472;2023-11-21T05:57:51;1.73;;;1.69;;
66669;SDS011;53568;52.164;4.472;2023-11-21T06:00:17;1.63;;;1.58;;
66669;SDS011;53568;52.164;4.472;2023-11-21T06:02:47;1.55;;;1.50;;
66669;SDS011;53568;52.164;4.472;2023-11-21T06:05:17;1.78;;;1.68;;
66669;SDS011;53568;52.164;4.472;2023-11-21T06:07:43;1.69;;;1.57;;
66669;SDS011;53568;52.164;4.472;2023-11-21T06:10:10;1.75;;;1.63;;
66669;SDS011;53568;52.164;4.472;2023-11-21T06:12:39;1.81;;;1.69;;
66669;SDS011;53568;52.164;4.472;2023-11-21T06:15:08;1.63;;;1.52;;
66669;SDS011;53568;52.164;4.472;2023-11-21T06:17:37;1.68;;;1.58;;
66669;SDS011;53568;52.164;4.472;2023-11-21T06:20:03;1.73;;;1.60;;
66669;SDS011;53568;52.164;4.472;2023-11-21T06:22:37;1.91;;;1.78;;
66669;SDS011;53568;52.164;4.472;2023-11-21T06:25:04;1.82;;;1.70;;
66669;SDS011;53568;52.164;4.472;2023-11-21T06:27:34;1.87;;;1.74;;
66669;SDS011;53568;52.164;4.472;2023-11-21T06:30:03;2.26;;;2.07;;
66669;SDS011;53568;52.164;4.472;2023-11-21T06:32:29;2.57;;;2.31;;
66669;SDS011;53568;52.164;4.472;2023-11-21T06:34:55;3.01;;;2.72;;
66669;SDS011;53568;52.164;4.472;2023-11-21T06:37:27;3.05;;;2.78;;
66669;SDS011;53568;52.164;4.472;2023-11-21T06:39:53;3.39;;;3.12;;
66669;SDS011;53568;52.164;4.472;2023-11-21T06:42:19;3.21;;;2.96;;
66669;SDS011;53568;52.164;4.472;2023-11-21T06:44:46;3.69;;;3.35;;
66669;SDS011;53568;52.164;4.472;2023-11-21T06:47:13;3.55;;;3.28;;
66669;SDS011;53568;52.164;4.472;2023-11-21T06:49:39;4.02;;;3.79;;
66669;SDS011;53568;52.164;4.472;2023-11-21T06:52:04;3.96;;;3.74;;
66669;SDS011;53568;52.164;4.472;2023-11-21T06:54:30;4.41;;;4.06;;
66669;SDS011;53568;52.164;4.472;2023-11-21T06:56:56;4.59;;;4.20;;
66669;SDS011;53568;52.164;4.472;2023-11-21T06:59:23;4.78;;;4.32;;
66669;SDS011;53568;52.164;4.472;2023-11-21T07:01:49;4.54;;;4.14;;
66669;SDS011;53568;52.164;4.472;2023-11-21T07:04:15;4.91;;;4.38;;
66669;SDS011;53568;52.164;4.472;2023-11-21T07:06:40;5.21;;;4.72;;
66669;SDS011;53568;52.164;4.472;2023-11-21T07:09:06;5.39;;;4.85;;
66669;SDS011;53568;52.164;4.472;2023-11-21T07:11:33;4.61;;;4.21;;
66669;SDS011;53568;52.164;4.472;2023-11-21T07:14:00;4.59;;;4.20;;
66669;SDS011;53568;52.164;4.472;2023-11-21T07:16:35;4.66;;;4.30;;
66669;SDS011;53568;52.164;4.472;2023-11-21T07:19:04;4.27;;;4.02;;
66669;SDS011;53568;52.164;4.472;2023-11-21T07:21:34;4.69;;;4.35;;
66669;SDS011;53568;52.164;4.472;2023-11-21T07:24:01;4.40;;;4.06;;
66669;SDS011;53568;52.164;4.472;2023-11-21T07:26:27;4.76;;;4.41;;
66669;SDS011;53568;52.164;4.472;2023-11-21T07:28:53;4.75;;;4.30;;
66669;SDS011;53568;52.164;4.472;2023-11-21T07:31:19;4.81;;;4.36;;
66669;SDS011;53568;52.164;4.472;2023-11-21T07:33:48;5.34;;;4.92;;
66669;SDS011;53568;52.164;4.472;2023-11-21T07:36:14;5.22;;;4.90;;
66669;SDS011;53568;52.164;4.472;2023-11-21T07:38:43;4.90;;;4.64;;
66669;SDS011;53568;52.164;4.472;2023-11-21T07:41:08;4.97;;;4.73;;
66669;SDS011;53568;52.164;4.472;2023-11-21T07:43:35;5.04;;;4.79;;
66669;SDS011;53568;52.164;4.472;2023-11-21T07:46:01;5.00;;;4.79;;
66669;SDS011;53568;52.164;4.472;2023-11-21T07:48:33;5.42;;;5.17;;
66669;SDS011;53568;52.164;4.472;2023-11-21T07:51:00;5.40;;;5.20;;
66669;SDS011;53568;52.164;4.472;2023-11-21T07:53:28;5.26;;;5.00;;
66669;SDS011;53568;52.164;4.472;2023-11-21T07:55:55;5.53;;;5.23;;
66669;SDS011;53568;52.164;4.472;2023-11-21T07:58:21;5.39;;;5.14;;
66669;SDS011;53568;52.164;4.472;2023-11-21T08:00:47;5.12;;;4.87;;
66669;SDS011;53568;52.164;4.472;2023-11-21T08:03:15;5.44;;;5.22;;
66669;SDS011;53568;52.164;4.472;2023-11-21T08:05:41;5.20;;;5.07;;
66669;SDS011;53568;52.164;4.472;2023-11-21T08:08:08;5.30;;;5.19;;
66669;SDS011;53568;52.164;4.472;2023-11-21T08:10:33;5.52;;;5.33;;
66669;SDS011;53568;52.164;4.472;2023-11-21T08:13:01;5.50;;;5.34;;
66669;SDS011;53568;52.164;4.472;2023-11-21T08:15:27;5.11;;;4.95;;
66669;SDS011;53568;52.164;4.472;2023-11-21T08:17:53;5.12;;;4.94;;
66669;SDS011;53568;52.164;4.472;2023-11-21T08:20:18;5.05;;;4.94;;
66669;SDS011;53568;52.164;4.472;2023-11-21T08:22:44;5.16;;;4.99;;
66669;SDS011;53568;52.164;4.472;2023-11-21T08:25:12;5.03;;;4.79;;
66669;SDS011;53568;52.164;4.472;2023-11-21T08:27:38;5.03;;;4.88;;
66669;SDS011;53568;52.164;4.472;2023-11-21T08:30:04;4.66;;;4.54;;
66669;SDS011;53568;52.164;4.472;2023-11-21T08:32:30;4.60;;;4.51;;
66669;SDS011;53568;52.164;4.472;2023-11-21T08:34:57;4.54;;;4.45;;
66669;SDS011;53568;52.164;4.472;2023-11-21T08:37:23;4.34;;;4.26;;
66669;SDS011;53568;52.164;4.472;2023-11-21T08:39:49;4.13;;;4.05;;
66669;SDS011;53568;52.164;4.472;2023-11-21T08:42:15;4.42;;;4.31;;
66669;SDS011;53568;52.164;4.472;2023-11-21T08:44:40;4.27;;;4.18;;
66669;SDS011;53568;52.164;4.472;2023-11-21T08:47:06;4.22;;;4.18;;
66669;SDS011;53568;52.164;4.472;2023-11-21T08:49:32;4.61;;;4.56;;
66669;SDS011;53568;52.164;4.472;2023-11-21T08:51:58;4.38;;;4.35;;
66669;SDS011;53568;52.164;4.472;2023-11-21T08:54:25;4.83;;;4.78;;
66669;SDS011;53568;52.164;4.472;2023-11-21T08:56:54;5.18;;;5.11;;
66669;SDS011;53568;52.164;4.472;2023-11-21T08:59:20;5.56;;;5.50;;
66669;SDS011;53568;52.164;4.472;2023-11-21T09:01:46;5.22;;;5.12;;
66669;SDS011;53568;52.164;4.472;2023-11-21T09:04:12;5.39;;;5.26;;
66669;SDS011;53568;52.164;4.472;2023-11-21T09:06:38;5.64;;;5.56;;
66669;SDS011;53568;52.164;4.472;2023-11-21T09:09:05;5.47;;;5.41;;
66669;SDS011;53568;52.164;4.472;2023-11-21T09:11:34;5.31;;;5.31;;
66669;SDS011;53568;52.164;4.472;2023-11-21T09:14:00;5.77;;;5.75;;
66669;SDS011;53568;52.164;4.472;2023-11-21T09:16:26;6.13;;;6.02;;
66669;SDS011;53568;52.164;4.472;2023-11-21T09:18:52;6.03;;;5.92;;
66669;SDS011;53568;52.164;4.472;2023-11-21T09:21:17;5.69;;;5.59;;
66669;SDS011;53568;52.164;4.472;2023-11-21T09:23:46;6.19;;;6.09;;
66669;SDS011;53568;52.164;4.472;2023-11-21T09:26:13;5.80;;;5.72;;
66669;SDS011;53568;52.164;4.472;2023-11-21T09:28:41;5.95;;;5.89;;
66669;SDS011;53568;52.164;4.472;2023-11-21T09:31:11;6.38;;;6.32;;
66669;SDS011;53568;52.164;4.472;2023-11-21T09:33:37;6.53;;;6.45;;
66669;SDS011;53568;52.164;4.472;2023-11-21T09:36:03;6.29;;;6.26;;
66669;SDS011;53568;52.164;4.472;2023-11-21T09:38:30;6.46;;;6.35;;
66669;SDS011;53568;52.164;4.472;2023-11-21T09:40:56;6.69;;;6.58;;
66669;SDS011;53568;52.164;4.472;2023-11-21T09:43:24;6.65;;;6.52;;
66669;SDS011;53568;52.164;4.472;2023-11-21T09:45:54;6.61;;;6.49;;
66669;SDS011;53568;52.164;4.472;2023-11-21T09:48:26;6.68;;;6.52;;
66669;SDS011;53568;52.164;4.472;2023-11-21T09:50:56;6.67;;;6.39;;
66669;SDS011;53568;52.164;4.472;2023-11-21T09:53:25;6.98;;;6.70;;
66669;SDS011;53568;52.164;4.472;2023-11-21T09:55:56;6.20;;;6.07;;
66669;SDS011;53568;52.164;4.472;2023-11-21T09:58:21;6.08;;;6.05;;
66669;SDS011;53568;52.164;4.472;2023-11-21T10:00:52;5.90;;;5.89;;
66669;SDS011;53568;52.164;4.472;2023-11-21T10:03:22;5.43;;;5.37;;
66669;SDS011;53568;52.164;4.472;2023-11-21T10:05:48;5.42;;;5.29;;
66669;SDS011;53568;52.164;4.472;2023-11-21T10:08:17;5.45;;;5.37;;
66669;SDS011;53568;52.164;4.472;2023-11-21T10:10:49;5.17;;;5.13;;
66669;SDS011;53568;52.164;4.472;2023-11-21T10:13:19;5.43;;;5.38;;
66669;SDS011;53568;52.164;4.472;2023-11-21T10:15:49;5.53;;;5.44;;
66669;SDS011;53568;52.164;4.472;2023-11-21T10:18:18;5.23;;;5.19;;
66669;SDS011;53568;52.164;4.472;2023-11-21T10:20:44;5.09;;;5.03;;
66669;SDS011;53568;52.164;4.472;2023-11-21T10:23:18;5.02;;;4.99;;
66669;SDS011;53568;52.164;4.472;2023-11-21T10:25:44;5.04;;;4.95;;
66669;SDS011;53568;52.164;4.472;2023-11-21T10:28:10;4.81;;;4.75;;
66669;SDS011;53568;52.164;4.472;2023-11-21T10:30:36;5.11;;;5.00;;
66669;SDS011;53568;52.164;4.472;2023-11-21T10:33:03;5.13;;;5.03;;
66669;SDS011;53568;52.164;4.472;2023-11-21T10:35:42;5.04;;;4.95;;
66669;SDS011;53568;52.164;4.472;2023-11-21T10:38:12;4.88;;;4.79;;
66669;SDS011;53568;52.164;4.472;2023-11-21T10:40:40;5.23;;;5.13;;
66669;SDS011;53568;52.164;4.472;2023-11-21T10:43:07;5.16;;;5.06;;
66669;SDS011;53568;52.164;4.472;2023-11-21T10:45:38;5.69;;;5.55;;
66669;SDS011;53568;52.164;4.472;2023-11-21T10:48:07;6.14;;;5.97;;
66669;SDS011;53568;52.164;4.472;2023-11-21T10:50:36;6.22;;;6.11;;
66669;SDS011;53568;52.164;4.472;2023-11-21T10:53:03;6.18;;;6.15;;
66669;SDS011;53568;52.164;4.472;2023-11-21T10:55:30;7.09;;;6.89;;
66669;SDS011;53568;52.164;4.472;2023-11-21T10:57:58;7.12;;;6.99;;
66669;SDS011;53568;52.164;4.472;2023-11-21T11:00:27;7.11;;;6.94;;
66669;SDS011;53568;52.164;4.472;2023-11-21T11:02:54;6.74;;;6.67;;
66669;SDS011;53568;52.164;4.472;2023-11-21T11:05:24;7.15;;;7.01;;
66669;SDS011;53568;52.164;4.472;2023-11-21T11:08:04;7.77;;;7.60;;
66669;SDS011;53568;52.164;4.472;2023-11-21T11:10:35;7.55;;;7.39;;
66669;SDS011;53568;52.164;4.472;2023-11-21T11:13:01;7.10;;;6.95;;
66669;SDS011;53568;52.164;4.472;2023-11-21T11:15:28;7.85;;;7.68;;
66669;SDS011;53568;52.164;4.472;2023-11-21T11:17:54;8.93;;;8.72;;
66669;SDS011;53568;52.164;4.472;2023-11-21T11:20:25;8.77;;;8.59;;
66669;SDS011;53568;52.164;4.472;2023-11-21T11:28:27;10.02;;;9.75;;
66669;SDS011;53568;52.164;4.472;2023-11-21T11:33:59;9.27;;;9.09;;
66669;SDS011;53568;52.164;4.472;2023-11-21T11:36:49;9.23;;;9.05;;
66669;SDS011;53568;52.164;4.472;2023-11-21T11:39:28;8.84;;;8.64;;
66669;SDS011;53568;52.164;4.472;2023-11-21T11:41:56;8.18;;;7.97;;
66669;SDS011;53568;52.164;4.472;2023-11-21T11:49:59;7.81;;;7.75;;
66669;SDS011;53568;52.164;4.472;2023-11-21T11:52:54;9.32;;;9.22;;
66669;SDS011;53568;52.164;4.472;2023-11-21T11:55:23;9.46;;;9.27;;
66669;SDS011;53568;52.164;4.472;2023-11-21T11:57:51;9.85;;;9.69;;
66669;SDS011;53568;52.164;4.472;2023-11-21T12:00:21;9.84;;;9.62;;
66669;SDS011;53568;52.164;4.472;2023-11-21T12:03:03;10.76;;;10.36;;
66669;SDS011;53568;52.164;4.472;2023-11-21T12:05:32;11.14;;;10.63;;
66669;SDS011;53568;52.164;4.472;2023-11-21T12:08:07;10.47;;;10.18;;
66669;SDS011;53568;52.164;4.472;2023-11-21T12:10:34;10.38;;;10.10;;
66669;SDS011;53568;52.164;4.472;2023-11-21T12:13:03;10.45;;;10.14;;
66669;SDS011;53568;52.164;4.472;2023-11-21T12:15:35;10.22;;;9.91;;
66669;SDS011;53568;52.164;4.472;2023-11-21T12:18:02;10.63;;;10.44;;
66669;SDS011;53568;52.164;4.472;2023-11-21T12:20:29;9.86;;;9.72;;
66669;SDS011;53568;52.164;4.472;2023-11-21T12:22:59;9.97;;;9.85;;
66669;SDS011;53568;52.164;4.472;2023-11-21T12:25:26;9.88;;;9.62;;
66669;SDS011;53568;52.164;4.472;2023-11-21T12:27:59;9.94;;;9.69;;
66669;SDS011;53568;52.164;4.472;2023-11-21T12:30:26;9.92;;;9.78;;
66669;SDS011;53568;52.164;4.472;2023-11-21T12:32:56;9.72;;;9.36;;
66669;SDS011;53568;52.164;4.472;2023-11-21T12:35:24;9.38;;;9.20;;
66669;SDS011;53568;52.164;4.472;2023-11-21T12:37:51;10.01;;;9.75;;
66669;SDS011;53568;52.164;4.472;2023-11-21T12:40:18;9.50;;;9.30;;
66669;SDS011;53568;52.164;4.472;2023-11-21T12:42:45;9.34;;;9.13;;
66669;SDS011;53568;52.164;4.472;2023-11-21T12:47:46;9.46;;;9.26;;
66669;SDS011;53568;52.164;4.472;2023-11-21T12:50:28;9.95;;;9.74;;
66669;SDS011;53568;52.164;4.472;2023-11-21T12:53:00;9.48;;;9.34;;
66669;SDS011;53568;52.164;4.472;2023-11-21T12:55:34;9.91;;;9.68;;
66669;SDS011;53568;52.164;4.472;2023-11-21T12:58:07;9.13;;;9.00;;
66669;SDS011;53568;52.164;4.472;2023-11-21T13:00:35;8.59;;;8.55;;
66669;SDS011;53568;52.164;4.472;2023-11-21T13:03:04;8.49;;;8.40;;
66669;SDS011;53568;52.164;4.472;2023-11-21T13:05:34;8.22;;;8.12;;
66669;SDS011;53568;52.164;4.472;2023-11-21T13:08:05;7.65;;;7.45;;
66669;SDS011;53568;52.164;4.472;2023-11-21T13:10:34;7.14;;;7.00;;
66669;SDS011;53568;52.164;4.472;2023-11-21T13:13:04;7.40;;;7.26;;
66669;SDS011;53568;52.164;4.472;2023-11-21T13:15:35;8.04;;;7.81;;
66669;SDS011;53568;52.164;4.472;2023-11-21T13:18:06;8.02;;;7.94;;
66669;SDS011;53568;52.164;4.472;2023-11-21T13:20:32;8.72;;;8.65;;
66669;SDS011;53568;52.164;4.472;2023-11-21T13:22:58;8.41;;;8.28;;
66669;SDS011;53568;52.164;4.472;2023-11-21T13:25:24;8.52;;;8.47;;
66669;SDS011;53568;52.164;4.472;2023-11-21T13:27:56;8.21;;;8.15;;
66669;SDS011;53568;52.164;4.472;2023-11-21T13:30:26;8.42;;;8.28;;
66669;SDS011;53568;52.164;4.472;2023-11-21T13:33:00;8.32;;;8.15;;
66669;SDS011;53568;52.164;4.472;2023-11-21T13:35:35;8.08;;;7.89;;
66669;SDS011;53568;52.164;4.472;2023-11-21T13:38:12;8.05;;;7.83;;
66669;SDS011;53568;52.164;4.472;2023-11-21T13:40:46;8.48;;;8.33;;
66669;SDS011;53568;52.164;4.472;2023-11-21T13:43:17;8.10;;;7.95;;
66669;SDS011;53568;52.164;4.472;2023-11-21T13:45:45;8.88;;;8.69;;
66669;SDS011;53568;52.164;4.472;2023-11-21T13:48:15;10.70;;;10.43;;
66669;SDS011;53568;52.164;4.472;2023-11-21T13:50:44;11.92;;;11.53;;
66669;SDS011;53568;52.164;4.472;2023-11-21T13:53:32;11.88;;;11.54;;
66669;SDS011;53568;52.164;4.472;2023-11-21T13:55:58;11.59;;;11.35;;
66669;SDS011;53568;52.164;4.472;2023-11-21T13:58:24;11.97;;;11.65;;
66669;SDS011;53568;52.164;4.472;2023-11-21T14:01:04;12.79;;;12.36;;
66669;SDS011;53568;52.164;4.472;2023-11-21T14:03:38;13.21;;;12.72;;
66669;SDS011;53568;52.164;4.472;2023-11-21T14:06:15;13.12;;;12.67;;
66669;SDS011;53568;52.164;4.472;2023-11-21T14:08:46;12.45;;;12.18;;
66669;SDS011;53568;52.164;4.472;2023-11-21T14:11:12;12.69;;;12.39;;
66669;SDS011;53568;52.164;4.472;2023-11-21T14:13:42;12.55;;;12.22;;
66669;SDS011;53568;52.164;4.472;2023-11-21T14:16:11;13.47;;;13.00;;
66669;SDS011;53568;52.164;4.472;2023-11-21T14:18:39;14.01;;;13.60;;
66669;SDS011;53568;52.164;4.472;2023-11-21T14:21:18;14.57;;;14.25;;
66669;SDS011;53568;52.164;4.472;2023-11-21T14:23:44;15.33;;;14.86;;
66669;SDS011;53568;52.164;4.472;2023-11-21T14:26:10;15.98;;;15.52;;
66669;SDS011;53568;52.164;4.472;2023-11-21T14:28:39;16.14;;;15.74;;
66669;SDS011;53568;52.164;4.472;2023-11-21T14:31:04;16.97;;;16.47;;
66669;SDS011;53568;52.164;4.472;2023-11-21T14:33:30;16.65;;;16.22;;
66669;SDS011;53568;52.164;4.472;2023-11-21T14:35:56;16.85;;;16.33;;
66669;SDS011;53568;52.164;4.472;2023-11-21T14:38:22;16.68;;;16.24;;
66669;SDS011;53568;52.164;4.472;2023-11-21T14:40:48;15.58;;;15.18;;
66669;SDS011;53568;52.164;4.472;2023-11-21T14:43:14;14.55;;;14.15;;
66669;SDS011;53568;52.164;4.472;2023-11-21T14:45:41;14.52;;;13.99;;
66669;SDS011;53568;52.164;4.472;2023-11-21T14:48:06;13.40;;;12.89;;
66669;SDS011;53568;52.164;4.472;2023-11-21T14:50:34;13.31;;;12.87;;
66669;SDS011;53568;52.164;4.472;2023-11-21T14:53:03;13.12;;;12.55;;
66669;SDS011;53568;52.164;4.472;2023-11-21T14:55:32;12.98;;;12.44;;
66669;SDS011;53568;52.164;4.472;2023-11-21T14:58:06;12.85;;;12.38;;
66669;SDS011;53568;52.164;4.472;2023-11-21T15:00:35;12.44;;;12.04;;
66669;SDS011;53568;52.164;4.472;2023-11-21T15:03:01;12.79;;;12.42;;
66669;SDS011;53568;52.164;4.472;2023-11-21T15:05:28;12.36;;;12.00;;